Time;durP1;ratioP1;P1;durP2;ratioP2;P2;SDS_P1;SDS_P2;PMS_P1;PMS_P2;Temp;Humidity;BMP_temperature;BMP_pressure;BME280_temperature;BME280_humidity;BME280_pressure;Samples;Min_cycle;Max_cycle;Signal;HPM_P1;HPM_P2
2022/06/20 00:01:07;;;;;;;7.55;2.35;;;;;;;;;;5078696;28;20032;-67
2022/06/20 00:03:44;;;;;;;11.95;2.45;;;;;;;;;;5067429;28;20040;-67
2022/06/20 00:06:18;;;;;;;6.65;1.92;;;;;;;;;;5084418;28;20028;-67
2022/06/20 00:08:44;;;;;;;9.13;2.22;;;;;;;;;;5084129;28;20028;-67
2022/06/20 00:11:15;;;;;;;7.10;2.00;;;;;;;;;;5085968;28;20024;-67
2022/06/20 00:13:44;;;;;;;4.93;2.03;;;;;;;;;;5093120;28;20043;-67
2022/06/20 00:16:13;;;;;;;6.20;2.10;;;;;;;;;;5070699;28;20036;-67
2022/06/20 00:18:39;;;;;;;6.32;2.10;;;;;;;;;;5086215;28;20439;-67
2022/06/20 00:21:05;;;;;;;9.00;2.45;;;;;;;;;;5082358;28;20028;-66
2022/06/20 00:23:30;;;;;;;7.88;2.03;;;;;;;;;;5076779;28;20105;-67
2022/06/20 00:25:56;;;;;;;5.35;1.90;;;;;;;;;;5087496;28;20039;-67
2022/06/20 00:28:21;;;;;;;8.80;1.88;;;;;;;;;;5077320;28;20040;-67
2022/06/20 00:30:47;;;;;;;11.32;2.65;;;;;;;;;;5067090;28;20556;-67
2022/06/20 00:33:12;;;;;;;8.65;1.83;;;;;;;;;;5079427;28;20036;-67
2022/06/20 00:35:38;;;;;;;6.93;1.88;;;;;;;;;;5086118;28;20036;-67
2022/06/20 00:38:05;;;;;;;8.73;2.15;;;;;;;;;;5082992;28;20024;-67
2022/06/20 00:40:37;;;;;;;4.68;2.17;;;;;;;;;;5086465;28;20044;-67
2022/06/20 00:43:05;;;;;;;4.78;2.30;;;;;;;;;;5082745;28;20063;-67
2022/06/20 00:45:37;;;;;;;8.20;2.38;;;;;;;;;;5089940;28;20043;-67
2022/06/20 00:48:22;;;;;;;6.65;2.25;;;;;;;;;;5100599;28;20568;-67
2022/06/20 00:50:49;;;;;;;5.57;2.30;;;;;;;;;;5090405;28;20036;-67
2022/06/20 00:53:23;;;;;;;3.72;2.03;;;;;;;;;;5090049;28;20516;-67
2022/06/20 00:55:57;;;;;;;;;;;;;;;;;;5091769;28;20074;-67
2022/06/20 00:58:36;;;;;;;6.72;1.90;;;;;;;;;;5086969;28;19966;-67
2022/06/20 01:01:02;;;;;;;6.65;2.00;;;;;;;;;;5083107;28;20043;-67
2022/06/20 01:03:33;;;;;;;7.82;2.28;;;;;;;;;;5089185;28;20125;-67
2022/06/20 01:06:19;;;;;;;5.30;2.08;;;;;;;;;;5089827;28;20077;-67
2022/06/20 01:08:49;;;;;;;5.35;2.42;;;;;;;;;;5088444;28;20043;-67
2022/06/20 01:11:24;;;;;;;4.38;1.90;;;;;;;;;;5089679;28;20028;-67
2022/06/20 01:13:50;;;;;;;8.77;2.33;;;;;;;;;;5092903;28;20023;-67
2022/06/20 01:16:30;;;;;;;10.82;2.60;;;;;;;;;;5086688;28;20028;-66
2022/06/20 01:19:00;;;;;;;8.57;2.60;;;;;;;;;;5090053;28;20032;-67
2022/06/20 01:21:32;;;;;;;5.55;2.22;;;;;;;;;;5088667;28;20123;-67
2022/06/20 01:24:03;;;;;;;7.72;2.10;;;;;;;;;;5088580;28;20108;-67
2022/06/20 01:27:06;;;;;;;9.68;2.20;;;;;;;;;;5089592;28;20021;-67
2022/06/20 01:29:31;;;;;;;4.43;1.92;;;;;;;;;;5088043;28;20116;-67
2022/06/20 01:31:59;;;;;;;6.07;2.10;;;;;;;;;;5080852;28;20103;-67
2022/06/20 01:34:25;;;;;;;4.93;2.10;;;;;;;;;;5083710;28;20032;-67
2022/06/20 01:39:42;;;;;;;6.88;2.20;;;;;;;;;;5097136;28;20105;-66
2022/06/20 01:42:19;;;;;;;3.53;1.98;;;;;;;;;;5111462;28;20024;-67
2022/06/20 01:47:52;;;;;;;7.40;2.15;;;;;;;;;;5083460;28;20039;-67
2022/06/20 01:50:18;;;;;;;6.22;2.33;;;;;;;;;;5089468;28;20028;-67
2022/06/20 01:52:44;;;;;;;10.95;2.70;;;;;;;;;;5083398;28;20446;-67
2022/06/20 01:55:14;;;;;;;6.57;2.28;;;;;;;;;;5088728;28;20020;-67
2022/06/20 01:57:45;;;;;;;8.85;2.70;;;;;;;;;;5073334;28;20436;-67
2022/06/20 02:00:17;;;;;;;4.72;2.60;;;;;;;;;;5079062;28;20036;-67
2022/06/20 02:02:48;;;;;;;8.70;2.70;;;;;;;;;;5074893;28;20444;-67
2022/06/20 02:05:19;;;;;;;6.20;2.83;;;;;;;;;;5085616;28;20024;-67
2022/06/20 02:07:45;;;;;;;8.75;2.75;;;;;;;;;;5088377;28;20018;-67
2022/06/20 02:10:17;;;;;;;7.60;2.67;;;;;;;;;;5088164;28;20032;-67
2022/06/20 02:12:44;;;;;;;7.40;3.70;;;;;;;;;;5084523;28;20115;-66
2022/06/20 02:15:16;;;;;;;9.73;3.03;;;;;;;;;;5093713;28;20517;-67
2022/06/20 02:17:42;;;;;;;9.25;3.42;;;;;;;;;;5079682;28;20043;-67
2022/06/20 02:20:13;;;;;;;11.23;2.90;;;;;;;;;;5075934;28;20076;-67
2022/06/20 02:22:40;;;;;;;11.15;3.00;;;;;;;;;;5086346;28;20044;-67
2022/06/20 02:25:10;;;;;;;9.02;2.70;;;;;;;;;;5084051;28;20039;-67
2022/06/20 02:27:58;;;;;;;12.10;2.90;;;;;;;;;;5082474;28;20035;-67
2022/06/20 02:30:24;;;;;;;8.90;2.80;;;;;;;;;;5087173;28;20053;-67
2022/06/20 02:32:55;;;;;;;10.45;2.78;;;;;;;;;;5078770;28;20513;-66
2022/06/20 02:35:21;;;;;;;11.52;3.20;;;;;;;;;;5078718;28;20047;-67
2022/06/20 02:37:48;;;;;;;6.78;2.90;;;;;;;;;;5087039;28;20096;-67
2022/06/20 02:40:17;;;;;;;6.60;2.53;;;;;;;;;;5088796;28;20032;-67
2022/06/20 02:42:49;;;;;;;8.15;2.60;;;;;;;;;;5087267;28;20028;-67
2022/06/20 02:45:16;;;;;;;7.43;2.47;;;;;;;;;;5076599;28;20029;-67
2022/06/20 02:47:47;;;;;;;8.73;3.10;;;;;;;;;;5072248;28;20032;-67
2022/06/20 02:50:18;;;;;;;9.18;2.95;;;;;;;;;;5078176;28;20028;-66
2022/06/20 02:52:50;;;;;;;9.73;2.70;;;;;;;;;;5073324;28;20027;-67
2022/06/20 02:55:17;;;;;;;5.70;2.40;;;;;;;;;;5081970;28;20085;-67
2022/06/20 02:57:47;;;;;;;11.05;2.78;;;;;;;;;;5084668;28;20028;-67
2022/06/20 03:00:17;;;;;;;7.72;2.58;;;;;;;;;;5082217;28;20036;-67
2022/06/20 03:02:47;;;;;;;10.52;2.47;;;;;;;;;;5069686;28;20032;-67
2022/06/20 03:05:13;;;;;;;10.48;2.72;;;;;;;;;;5077671;28;20012;-67
2022/06/20 03:07:40;;;;;;;5.50;2.08;;;;;;;;;;5079976;28;20032;-67
2022/06/20 03:10:28;;;;;;;5.88;2.42;;;;;;;;;;5078399;28;20676;-67
2022/06/20 03:12:54;;;;;;;6.88;2.72;;;;;;;;;;5081690;28;20115;-67
2022/06/20 03:15:20;;;;;;;9.88;2.10;;;;;;;;;;5081688;28;20062;-67
2022/06/20 03:17:48;;;;;;;8.50;2.40;;;;;;;;;;5077718;28;20115;-67
2022/06/20 03:20:17;;;;;;;9.57;2.53;;;;;;;;;;5069414;28;20063;-67
2022/06/20 03:22:49;;;;;;;6.45;2.33;;;;;;;;;;5078409;28;20119;-67
2022/06/20 03:25:16;;;;;;;6.63;2.10;;;;;;;;;;5077656;28;20417;-67
2022/06/20 03:27:42;;;;;;;8.88;2.78;;;;;;;;;;5080220;28;20982;-67
2022/06/20 03:30:33;;;;;;;11.57;2.45;;;;;;;;;;5077869;28;20036;-67
2022/06/20 03:33:03;;;;;;;7.63;2.17;;;;;;;;;;5065746;28;20032;-67
2022/06/20 03:35:30;;;;;;;7.32;2.10;;;;;;;;;;5079265;28;20545;-67
2022/06/20 03:38:05;;;;;;;7.25;2.10;;;;;;;;;;5084030;28;20027;-67
2022/06/20 03:40:31;;;;;;;9.95;2.20;;;;;;;;;;5082702;28;20069;-67
2022/06/20 03:42:58;;;;;;;4.97;1.75;;;;;;;;;;5083905;28;20050;-67
2022/06/20 03:45:28;;;;;;;10.95;2.45;;;;;;;;;;5083113;28;20036;-67
2022/06/20 03:48:17;;;;;;;9.73;2.33;;;;;;;;;;5084263;28;20607;-67
2022/06/20 03:50:53;;;;;;;11.95;2.35;;;;;;;;;;5080441;28;20055;-67
2022/06/20 03:53:27;;;;;;;7.72;1.90;;;;;;;;;;5085787;28;20097;-67
2022/06/20 03:55:58;;;;;;;8.63;2.42;;;;;;;;;;5086729;28;20430;-67
2022/06/20 03:58:40;;;;;;;7.05;2.15;;;;;;;;;;5078338;28;20447;-67
2022/06/20 04:01:14;;;;;;;10.27;2.90;;;;;;;;;;5082893;28;20032;-67
2022/06/20 04:04:02;;;;;;;4.50;2.15;;;;;;;;;;5072363;28;20070;-67
2022/06/20 04:06:35;;;;;;;6.57;1.85;;;;;;;;;;5081340;28;20037;-66
2022/06/20 04:12:10;;;;;;;10.25;2.10;;;;;;;;;;5072377;28;20412;-67
2022/06/20 04:14:47;;;;;;;7.40;2.03;;;;;;;;;;5083476;28;20028;-67
2022/06/20 04:20:22;;;;;;;5.38;1.98;;;;;;;;;;5081343;28;20034;-67
2022/06/20 04:22:52;;;;;;;9.65;2.00;;;;;;;;;;5081506;28;20462;-67
2022/06/20 04:25:45;;;;;;;5.93;1.98;;;;;;;;;;5086945;28;20035;-67
2022/06/20 04:28:26;;;;;;;5.07;1.88;;;;;;;;;;5072419;28;20032;-67
2022/06/20 04:30:51;;;;;;;10.25;2.55;;;;;;;;;;5085418;28;20043;-67
2022/06/20 04:33:26;;;;;;;6.15;2.30;;;;;;;;;;5074242;28;20048;-67
2022/06/20 04:35:57;;;;;;;6.22;1.85;;;;;;;;;;5084738;28;20040;-67
2022/06/20 04:38:30;;;;;;;8.85;2.58;;;;;;;;;;5084924;28;20032;-67
2022/06/20 04:41:02;;;;;;;6.30;2.22;;;;;;;;;;5084971;28;20020;-67
2022/06/20 04:43:43;;;;;;;9.45;2.42;;;;;;;;;;5084750;28;20039;-67
2022/06/20 04:46:24;;;;;;;7.72;1.95;;;;;;;;;;5070083;28;20036;-67
2022/06/20 04:48:50;;;;;;;11.80;2.28;;;;;;;;;;5077540;28;20040;-67
2022/06/20 04:51:27;;;;;;;7.45;1.80;;;;;;;;;;5078745;28;20032;-67
2022/06/20 04:53:53;;;;;;;6.18;1.70;;;;;;;;;;5066270;28;20041;-67
2022/06/20 04:56:26;;;;;;;6.45;2.17;;;;;;;;;;5079809;28;20516;-67
2022/06/20 04:59:17;;;;;;;5.72;1.85;;;;;;;;;;5083122;28;20107;-67
2022/06/20 05:01:43;;;;;;;5.13;1.90;;;;;;;;;;5079753;28;20122;-66
2022/06/20 05:04:22;;;;;;;6.70;1.90;;;;;;;;;;5075459;28;20033;-67
2022/06/20 05:06:48;;;;;;;6.18;1.88;;;;;;;;;;5080986;28;20054;-67
2022/06/20 05:09:40;;;;;;;6.18;2.00;;;;;;;;;;5080442;28;20028;-67
2022/06/20 05:12:42;;;;;;;5.45;1.95;;;;;;;;;;5084075;28;20610;-67
2022/06/20 05:15:16;;;;;;;6.57;1.95;;;;;;;;;;5076235;28;20044;-67
2022/06/20 05:17:43;;;;;;;6.55;2.42;;;;;;;;;;5079263;28;20040;-67
2022/06/20 05:20:38;;;;;;;5.38;1.55;;;;;;;;;;5074222;28;20056;-67
2022/06/20 05:23:15;;;;;;;8.45;2.63;;;;;;;;;;5084707;28;20059;-67
2022/06/20 05:25:41;;;;;;;6.95;2.50;;;;;;;;;;5085129;28;20098;-67
2022/06/20 05:28:36;;;;;;;5.35;1.90;;;;;;;;;;5080875;28;20644;-67
2022/06/20 05:31:03;;;;;;;5.05;2.13;;;;;;;;;;5076387;28;20119;-66
2022/06/20 05:33:41;;;;;;;11.32;2.30;;;;;;;;;;5081651;28;20111;-67
2022/06/20 05:36:09;;;;;;;7.10;2.10;;;;;;;;;;5086334;28;20036;-67
2022/06/20 05:38:50;;;;;;;8.20;2.30;;;;;;;;;;5078264;28;20048;-67
2022/06/20 05:41:16;;;;;;;7.57;2.22;;;;;;;;;;5087292;28;20055;-67
2022/06/20 05:43:42;;;;;;;7.78;2.90;;;;;;;;;;5089374;28;20106;-67
2022/06/20 05:46:17;;;;;;;8.23;2.20;;;;;;;;;;5085314;28;20084;-67
2022/06/20 05:49:03;;;;;;;5.20;2.28;;;;;;;;;;5084435;28;20029;-67
2022/06/20 05:51:28;;;;;;;8.35;2.45;;;;;;;;;;5076334;28;20085;-66
2022/06/20 05:54:04;;;;;;;7.82;2.45;;;;;;;;;;5087971;28;20032;-67
2022/06/20 05:56:42;;;;;;;3.53;1.92;;;;;;;;;;5087029;28;20019;-67
2022/06/20 05:59:20;;;;;;;3.53;2.53;;;;;;;;;;5067672;28;20021;-67
2022/06/20 06:01:45;;;;;;;8.82;2.17;;;;;;;;;;5083793;28;20178;-67
2022/06/20 06:04:29;;;;;;;4.53;2.13;;;;;;;;;;5076809;28;20481;-67
2022/06/20 06:06:59;;;;;;;17.33;6.30;;;;;;;;;;5080179;28;20173;-67
2022/06/20 06:09:29;;;;;;;13.48;2.70;;;;;;;;;;5078709;28;20025;-67
2022/06/20 06:12:01;;;;;;;8.90;2.45;;;;;;;;;;5075070;28;20028;-67
2022/06/20 06:14:29;;;;;;;10.70;2.58;;;;;;;;;;5081422;28;20016;-68
2022/06/20 06:17:11;;;;;;;5.88;2.35;;;;;;;;;;5069543;28;20414;-67
2022/06/20 06:19:43;;;;;;;5.65;2.33;;;;;;;;;;5078439;28;20032;-68
2022/06/20 06:22:38;;;;;;;6.88;2.63;;;;;;;;;;5079821;28;20429;-68
2022/06/20 06:25:17;;;;;;;7.53;2.20;;;;;;;;;;5072050;28;20040;-69
2022/06/20 06:27:45;;;;;;;4.68;2.25;;;;;;;;;;5073726;28;20037;-67
2022/06/20 06:30:27;;;;;;;7.82;2.70;;;;;;;;;;5075719;28;20032;-67
2022/06/20 06:33:05;;;;;;;7.45;2.50;;;;;;;;;;5075146;28;20075;-68
2022/06/20 06:35:39;;;;;;;6.28;2.40;;;;;;;;;;5080532;28;20082;-65
2022/06/20 06:38:10;;;;;;;6.88;2.67;;;;;;;;;;5080845;28;20033;-67
2022/06/20 06:40:56;;;;;;;7.68;2.30;;;;;;;;;;5081041;28;20089;-67
2022/06/20 06:43:30;;;;;;;5.35;1.98;;;;;;;;;;5069962;28;20477;-67
2022/06/20 06:46:00;;;;;;;6.70;2.38;;;;;;;;;;5080273;28;20153;-67
2022/06/20 06:48:37;;;;;;;10.45;2.47;;;;;;;;;;5074498;28;20036;-67
2022/06/20 06:51:11;;;;;;;8.60;2.70;;;;;;;;;;5079414;28;20048;-67
2022/06/20 06:53:42;;;;;;;;;;;;;;;;;;5075887;28;20062;-73
2022/06/20 06:56:22;;;;;;;6.25;2.20;;;;;;;;;;5081925;28;20432;-70
2022/06/20 06:58:56;;;;;;;8.15;2.60;;;;;;;;;;5082166;28;20553;-73
2022/06/20 07:01:26;;;;;;;6.68;2.75;;;;;;;;;;5081871;28;20050;-72
2022/06/20 07:04:03;;;;;;;5.72;2.35;;;;;;;;;;5084676;28;20073;-72
2022/06/20 07:06:40;;;;;;;6.80;2.55;;;;;;;;;;5072234;28;20115;-74
2022/06/20 07:09:24;;;;;;;4.28;2.72;;;;;;;;;;5081531;28;20040;-73
2022/06/20 07:12:00;;;;;;;5.43;2.38;;;;;;;;;;5086627;28;20036;-72
2022/06/20 07:14:25;;;;;;;6.15;2.38;;;;;;;;;;5090981;28;20529;-72
2022/06/20 07:16:58;;;;;;;8.70;2.75;;;;;;;;;;5081124;28;20147;-73
2022/06/20 07:19:26;;;;;;;4.13;2.00;;;;;;;;;;5074351;28;20134;-72
2022/06/20 07:21:52;;;;;;;6.03;2.28;;;;;;;;;;5078291;28;20257;-72
2022/06/20 07:24:22;;;;;;;8.65;2.63;;;;;;;;;;5075223;28;20036;-72
2022/06/20 07:27:00;;;;;;;7.72;2.60;;;;;;;;;;5084933;28;20143;-71
2022/06/20 07:29:32;;;;;;;7.90;2.35;;;;;;;;;;5075389;28;20048;-68
2022/06/20 07:32:07;;;;;;;8.73;2.35;;;;;;;;;;5086045;28;20059;-68
2022/06/20 07:34:54;;;;;;;8.77;2.10;;;;;;;;;;5072566;28;20060;-69
2022/06/20 07:37:59;;;;;;;6.78;2.30;;;;;;;;;;5082594;28;20044;-68
2022/06/20 07:40:31;;;;;;;9.68;2.50;;;;;;;;;;5072771;28;20008;-68
2022/06/20 07:43:12;;;;;;;6.10;2.95;;;;;;;;;;5077401;28;20039;-68
2022/06/20 07:45:41;;;;;;;10.68;3.05;;;;;;;;;;5068509;28;20536;-68
2022/06/20 07:48:22;;;;;;;10.27;2.83;;;;;;;;;;5083317;28;20024;-70
2022/06/20 07:50:59;;;;;;;10.65;2.78;;;;;;;;;;5081268;28;20153;-69
2022/06/20 07:53:32;;;;;;;5.30;2.30;;;;;;;;;;5072021;28;20028;-67
2022/06/20 07:56:05;;;;;;;3.13;2.05;;;;;;;;;;5077687;28;20522;-68
2022/06/20 07:58:37;;;;;;;8.80;2.58;;;;;;;;;;5081903;28;20016;-67
2022/06/20 08:01:12;;;;;;;5.32;2.90;;;;;;;;;;5082658;28;20524;-68
2022/06/20 08:03:49;;;;;;;7.78;2.65;;;;;;;;;;5081438;28;20556;-67
2022/06/20 08:06:20;;;;;;;9.70;2.50;;;;;;;;;;5078262;28;20493;-69
2022/06/20 08:09:47;;;;;;;9.85;3.17;;;;;;;;;;5080271;28;20044;-69
2022/06/20 08:12:13;;;;;;;8.23;3.30;;;;;;;;;;5021646;28;20045;-68
2022/06/20 08:14:41;;;;;;;8.38;3.47;;;;;;;;;;5019321;28;20439;-69
2022/06/20 08:17:09;;;;;;;6.60;2.90;;;;;;;;;;5048509;28;20032;-67
2022/06/20 08:19:37;;;;;;;11.13;2.97;;;;;;;;;;5081427;28;20032;-68
2022/06/20 08:22:09;;;;;;;7.30;2.90;;;;;;;;;;5077680;28;20056;-68
2022/06/20 08:24:57;;;;;;;8.73;2.97;;;;;;;;;;5076739;28;20048;-69
2022/06/20 08:27:41;;;;;;;8.48;2.78;;;;;;;;;;5077149;28;20130;-68
2022/06/20 08:30:13;;;;;;;5.70;2.95;;;;;;;;;;5068357;28;20069;-67
2022/06/20 08:33:09;;;;;;;8.55;3.15;;;;;;;;;;5073575;28;20135;-68
2022/06/20 08:35:57;;;;;;;5.90;2.45;;;;;;;;;;5073890;28;20042;-68
2022/06/20 08:38:27;;;;;;;9.77;2.85;;;;;;;;;;5073485;28;20040;-68
2022/06/20 08:41:14;;;;;;;7.13;2.80;;;;;;;;;;5072012;28;20058;-68
2022/06/20 08:44:04;;;;;;;8.20;3.30;;;;;;;;;;5069879;28;20544;-68
2022/06/20 08:46:41;;;;;;;6.65;3.05;;;;;;;;;;5072467;28;20027;-69
2022/06/20 08:49:25;;;;;;;5.30;2.80;;;;;;;;;;5080768;28;20085;-69
2022/06/20 08:52:13;;;;;;;9.55;3.25;;;;;;;;;;5083779;28;20116;-68
2022/06/20 08:54:57;;;;;;;5.50;3.28;;;;;;;;;;5083161;28;20040;-68
2022/06/20 08:57:37;;;;;;;5.78;3.00;;;;;;;;;;5083118;28;20138;-70
2022/06/20 09:00:09;;;;;;;9.20;3.17;;;;;;;;;;5075614;28;20043;-68
2022/06/20 09:02:55;;;;;;;7.78;3.80;;;;;;;;;;5083921;28;20032;-70
2022/06/20 09:05:23;;;;;;;8.25;3.60;;;;;;;;;;5083639;28;20050;-70
2022/06/20 09:07:48;;;;;;;7.15;3.78;;;;;;;;;;5086733;28;20111;-68
2022/06/20 09:10:37;;;;;;;7.68;4.10;;;;;;;;;;5076512;28;20111;-69
2022/06/20 09:13:05;;;;;;;9.15;4.65;;;;;;;;;;5071134;28;20032;-70
2022/06/20 09:16:01;;;;;;;7.45;3.50;;;;;;;;;;5089016;28;20040;-69
2022/06/20 09:18:39;;;;;;;6.75;3.67;;;;;;;;;;5086843;28;20056;-69
2022/06/20 09:21:14;;;;;;;7.00;4.00;;;;;;;;;;5086598;28;20110;-70
2022/06/20 09:24:00;;;;;;;8.20;3.72;;;;;;;;;;5083404;28;20044;-70
2022/06/20 09:26:33;;;;;;;6.45;3.83;;;;;;;;;;5079325;28;20127;-70
2022/06/20 09:29:23;;;;;;;9.40;3.75;;;;;;;;;;5087734;28;20535;-68
2022/06/20 09:32:23;;;;;;;5.93;4.00;;;;;;;;;;5088332;28;20035;-69
2022/06/20 09:34:57;;;;;;;4.93;3.63;;;;;;;;;;5080609;28;20120;-65
2022/06/20 09:37:35;;;;;;;7.88;4.22;;;;;;;;;;5078142;28;20109;-65
2022/06/20 09:40:16;;;;;;;7.95;3.97;;;;;;;;;;5084484;28;20020;-66
2022/06/20 09:43:02;;;;;;;7.22;3.67;;;;;;;;;;5068206;28;20036;-65
2022/06/20 09:45:56;;;;;;;10.50;3.78;;;;;;;;;;5069194;28;20033;-64
2022/06/20 09:48:21;;;;;;;7.43;3.90;;;;;;;;;;5077515;28;20127;-66
2022/06/20 09:51:11;;;;;;;5.50;3.75;;;;;;;;;;5081916;28;20126;-65
2022/06/20 09:54:01;;;;;;;6.72;3.83;;;;;;;;;;5078391;28;20412;-65
2022/06/20 09:56:32;;;;;;;7.13;3.63;;;;;;;;;;5085618;28;20521;-66
2022/06/20 09:59:04;;;;;;;7.50;3.80;;;;;;;;;;5073304;28;20075;-65
2022/06/20 10:01:32;;;;;;;10.10;4.00;;;;;;;;;;5080854;28;20279;-66
2022/06/20 10:04:27;;;;;;;5.97;3.80;;;;;;;;;;5077508;28;20080;-65
2022/06/20 10:06:54;;;;;;;7.88;3.58;;;;;;;;;;5083539;28;20063;-67
2022/06/20 10:09:26;;;;;;;9.25;3.85;;;;;;;;;;5079952;28;20036;-66
2022/06/20 10:12:11;;;;;;;4.50;3.85;;;;;;;;;;5084435;28;20762;-66
2022/06/20 10:14:50;;;;;;;6.75;4.28;;;;;;;;;;5087053;28;20067;-66
2022/06/20 10:17:44;;;;;;;9.13;5.07;;;;;;;;;;5085666;28;20056;-68
2022/06/20 10:20:31;;;;;;;7.32;4.80;;;;;;;;;;5066525;28;20028;-67
2022/06/20 10:23:21;;;;;;;5.38;4.80;;;;;;;;;;5071221;28;20557;-64
2022/06/20 10:26:02;;;;;;;8.18;4.93;;;;;;;;;;5080724;28;20074;-65
2022/06/20 10:28:36;;;;;;;7.03;4.93;;;;;;;;;;5085809;28;20020;-65
2022/06/20 10:31:17;;;;;;;8.18;4.30;;;;;;;;;;5085615;28;20069;-65
2022/06/20 10:33:52;;;;;;;6.93;4.55;;;;;;;;;;5078613;28;20031;-64
2022/06/20 10:37:00;;;;;;;9.48;4.93;;;;;;;;;;5087851;28;20063;-64
2022/06/20 10:39:44;;;;;;;6.45;4.38;;;;;;;;;;5088349;28;20062;-64
2022/06/20 10:42:33;;;;;;;5.95;4.15;;;;;;;;;;5087839;28;20077;-64
2022/06/20 10:45:36;;;;;;;6.72;4.97;;;;;;;;;;5069129;28;20538;-64
2022/06/20 10:48:14;;;;;;;8.05;4.93;;;;;;;;;;5079254;28;20047;-65
2022/06/20 10:51:16;;;;;;;6.43;5.18;;;;;;;;;;5069326;28;20040;-65
2022/06/20 10:54:00;;;;;;;7.20;5.25;;;;;;;;;;5073797;28;20119;-65
2022/06/20 10:56:38;;;;;;;6.50;4.60;;;;;;;;;;5074800;28;20387;-65
2022/06/20 10:59:24;;;;;;;7.93;4.47;;;;;;;;;;5086915;28;20111;-65
2022/06/20 11:01:53;;;;;;;6.20;4.20;;;;;;;;;;5070158;28;20597;-64
2022/06/20 11:04:37;;;;;;;5.88;4.32;;;;;;;;;;5076425;28;20031;-65
2022/06/20 11:07:16;;;;;;;6.15;4.18;;;;;;;;;;5069386;28;20024;-65
2022/06/20 11:09:53;;;;;;;8.85;5.18;;;;;;;;;;5076784;28;20570;-65
2022/06/20 11:12:25;;;;;;;6.88;5.10;;;;;;;;;;5088951;28;20060;-64
2022/06/20 11:15:16;;;;;;;8.40;5.00;;;;;;;;;;5089374;28;20029;-64
2022/06/20 11:17:46;;;;;;;5.70;4.38;;;;;;;;;;5088368;28;20055;-64
2022/06/20 11:20:25;;;;;;;6.50;4.22;;;;;;;;;;5077885;28;20036;-63
2022/06/20 11:23:12;;;;;;;7.55;4.13;;;;;;;;;;5090274;28;20721;-63
2022/06/20 11:26:05;;;;;;;5.57;4.10;;;;;;;;;;5087587;28;20119;-63
2022/06/20 11:28:56;;;;;;;6.68;4.90;;;;;;;;;;5088304;28;20016;-64
2022/06/20 11:31:34;;;;;;;8.73;5.05;;;;;;;;;;5086528;28;20412;-64
2022/06/20 11:34:44;;;;;;;5.30;4.10;;;;;;;;;;5080645;28;20020;-64
2022/06/20 11:37:19;;;;;;;5.03;3.90;;;;;;;;;;5084143;28;20543;-64
2022/06/20 11:39:54;;;;;;;5.25;4.03;;;;;;;;;;5082951;28;20028;-64
2022/06/20 11:42:31;;;;;;;8.07;4.30;;;;;;;;;;5080869;28;20040;-64
2022/06/20 11:45:27;;;;;;;6.90;3.47;;;;;;;;;;5076012;28;20040;-64
2022/06/20 11:48:22;;;;;;;4.43;3.70;;;;;;;;;;5081614;28;20033;-64
2022/06/20 11:51:02;;;;;;;8.10;3.95;;;;;;;;;;5081034;28;20031;-64
2022/06/20 11:53:49;;;;;;;5.05;4.50;;;;;;;;;;5079159;28;20028;-64
2022/06/20 11:57:09;;;;;;;5.25;3.70;;;;;;;;;;5066982;28;20097;-64
2022/06/20 11:59:53;;;;;;;5.15;3.65;;;;;;;;;;5014569;28;20034;-65
2022/06/20 12:02:46;;;;;;;5.28;3.45;;;;;;;;;;4993669;28;20061;-64
2022/06/20 12:05:17;;;;;;;8.13;3.30;;;;;;;;;;5067900;28;20040;-64
2022/06/20 12:08:02;;;;;;;3.47;2.83;;;;;;;;;;5082604;28;20114;-64
2022/06/20 12:10:42;;;;;;;4.43;3.08;;;;;;;;;;5086228;28;20090;-64
2022/06/20 12:13:29;;;;;;;5.80;3.60;;;;;;;;;;5085345;28;20572;-64
2022/06/20 12:16:15;;;;;;;5.72;3.13;;;;;;;;;;5080127;28;20119;-64
2022/06/20 12:24:33;;;;;;;6.82;3.22;;;;;;;;;;5073950;28;20051;-64
2022/06/20 12:26:58;;;;;;;5.20;2.92;;;;;;;;;;5082789;28;20124;-64
2022/06/20 12:29:25;;;;;;;8.45;3.20;;;;;;;;;;5087645;28;20032;-65
2022/06/20 12:31:55;;;;;;;3.90;3.00;;;;;;;;;;5085656;28;20036;-66
2022/06/20 12:34:38;;;;;;;6.75;3.40;;;;;;;;;;5078330;28;20034;-66
2022/06/20 12:37:22;;;;;;;;;;;;;;;;;;5087233;28;20026;-66
2022/06/20 12:39:57;;;;;;;4.55;2.83;;;;;;;;;;5075828;28;19973;-65
2022/06/20 12:42:40;;;;;;;6.22;2.92;;;;;;;;;;5085397;28;20040;-65
2022/06/20 12:45:24;;;;;;;4.20;2.78;;;;;;;;;;5080179;28;20113;-66
2022/06/20 12:48:14;;;;;;;4.90;2.50;;;;;;;;;;5089140;28;20065;-66
2022/06/20 12:50:52;;;;;;;7.35;2.92;;;;;;;;;;5079780;28;20028;-66
2022/06/20 12:53:23;;;;;;;4.03;2.80;;;;;;;;;;5088932;28;20032;-65
2022/06/20 12:56:01;;;;;;;4.75;2.55;;;;;;;;;;5091150;28;20038;-66
2022/06/20 12:58:51;;;;;;;4.65;2.83;;;;;;;;;;5089980;28;20024;-65
2022/06/20 13:01:33;;;;;;;6.55;2.42;;;;;;;;;;5083491;28;20035;-69
2022/06/20 13:04:04;;;;;;;8.07;2.60;;;;;;;;;;5079792;28;20025;-68
2022/06/20 13:07:06;;;;;;;3.72;2.55;;;;;;;;;;5078290;28;20076;-68
2022/06/20 13:09:32;;;;;;;6.43;2.63;;;;;;;;;;5067580;28;20036;-67
2022/06/20 13:12:22;;;;;;;9.00;2.53;;;;;;;;;;5068719;28;20036;-66
2022/06/20 13:15:19;;;;;;;4.80;2.42;;;;;;;;;;5074264;28;20036;-67
2022/06/20 13:18:18;;;;;;;4.00;2.47;;;;;;;;;;5083454;28;20032;-70
2022/06/20 13:20:48;;;;;;;5.38;2.45;;;;;;;;;;5077946;28;20036;-70
2022/06/20 13:23:14;;;;;;;5.70;2.33;;;;;;;;;;5088034;28;20054;-71
2022/06/20 13:26:05;;;;;;;4.20;2.72;;;;;;;;;;5081518;27;20040;-70
2022/06/20 13:28:37;;;;;;;4.38;2.40;;;;;;;;;;5079605;28;20955;-70
2022/06/20 13:31:15;;;;;;;6.38;2.42;;;;;;;;;;5079211;28;20111;-70
2022/06/20 13:33:50;;;;;;;3.08;2.22;;;;;;;;;;5072417;28;20079;-70
2022/06/20 13:36:33;;;;;;;6.43;2.30;;;;;;;;;;5081625;28;20115;-67
2022/06/20 13:39:19;;;;;;;4.57;2.25;;;;;;;;;;5072634;28;20086;-68
2022/06/20 13:42:10;;;;;;;7.50;2.53;;;;;;;;;;5083076;28;20032;-68
2022/06/20 13:44:48;;;;;;;7.53;2.60;;;;;;;;;;5077590;28;20095;-68
2022/06/20 13:47:25;;;;;;;7.03;2.17;;;;;;;;;;5071927;28;20040;-66
2022/06/20 13:50:10;;;;;;;4.93;2.30;;;;;;;;;;5082012;28;20043;-68
2022/06/20 13:52:56;;;;;;;2.83;1.90;;;;;;;;;;5080831;28;20560;-67
2022/06/20 13:55:59;;;;;;;5.90;2.42;;;;;;;;;;5074934;28;20028;-69
2022/06/20 13:58:36;;;;;;;2.90;1.92;;;;;;;;;;5083386;28;20024;-68
2022/06/20 14:01:07;;;;;;;4.97;2.17;;;;;;;;;;5081406;28;20373;-68
2022/06/20 14:03:32;;;;;;;3.75;1.92;;;;;;;;;;5084917;28;20394;-69
2022/06/20 14:06:09;;;;;;;9.05;2.30;;;;;;;;;;5083625;28;20051;-68
2022/06/20 14:08:35;;;;;;;4.30;2.10;;;;;;;;;;5086430;28;20123;-70
2022/06/20 14:11:03;;;;;;;4.80;1.90;;;;;;;;;;5087518;28;21761;-69
2022/06/20 14:13:34;;;;;;;3.38;2.00;;;;;;;;;;5085493;28;20031;-69
2022/06/20 14:16:26;;;;;;;3.40;1.95;;;;;;;;;;5077554;28;20421;-68
2022/06/20 14:19:07;;;;;;;4.30;1.88;;;;;;;;;;5082529;28;20051;-68
2022/06/20 14:21:42;;;;;;;5.93;1.90;;;;;;;;;;5081214;28;20102;-68
2022/06/20 14:24:37;;;;;;;5.05;1.80;;;;;;;;;;5076156;28;20044;-67
2022/06/20 14:27:10;;;;;;;4.20;1.85;;;;;;;;;;5079069;28;20884;-68
2022/06/20 14:29:41;;;;;;;3.80;1.77;;;;;;;;;;5086921;28;20036;-69
2022/06/20 14:32:09;;;;;;;4.20;2.15;;;;;;;;;;5078426;28;20028;-68
2022/06/20 14:35:20;;;;;;;5.60;1.92;;;;;;;;;;5073751;28;20444;-69
2022/06/20 14:37:29;;;;;;;4.55;2.10;;;;;;;;;;5087761;28;20105;-70
2022/06/20 14:39:57;;;;;;;3.95;1.83;;;;;;;;;;5090661;28;20511;-71
2022/06/20 14:42:42;;;;;;;6.22;2.60;;;;;;;;;;5089165;28;20063;-71
2022/06/20 14:45:19;;;;;;;5.13;2.63;;;;;;;;;;5085807;27;20040;-70
2022/06/20 14:48:22;;;;;;;5.15;1.77;;;;;;;;;;5085971;28;20036;-70
2022/06/20 14:50:51;;;;;;;;;;;;;;;;;;5020912;28;20478;-70
2022/06/20 14:53:34;;;;;;;4.90;1.83;;;;;;;;;;5091856;28;19916;-73
2022/06/20 14:56:11;;;;;;;4.80;2.00;;;;;;;;;;5070660;28;20032;-72
2022/06/20 14:59:12;;;;;;;3.13;2.00;;;;;;;;;;5072152;28;20575;-72
2022/06/20 15:01:53;;;;;;;4.70;1.70;;;;;;;;;;5071727;28;20066;-71
2022/06/20 15:04:47;;;;;;;4.70;2.10;;;;;;;;;;5079195;28;20402;-72
2022/06/20 15:07:24;;;;;;;4.65;1.80;;;;;;;;;;5071774;28;20035;-71
2022/06/20 15:09:58;;;;;;;4.45;1.80;;;;;;;;;;5072027;28;20084;-70
2022/06/20 15:12:32;;;;;;;3.63;1.80;;;;;;;;;;5075705;28;20050;-72
2022/06/20 15:15:10;;;;;;;6.72;2.50;;;;;;;;;;5084790;28;20038;-70
2022/06/20 15:17:56;;;;;;;5.75;1.77;;;;;;;;;;5081034;28;20123;-72
2022/06/20 15:20:27;;;;;;;4.30;1.80;;;;;;;;;;5080787;28;20036;-74
2022/06/20 15:23:04;;;;;;;5.70;2.22;;;;;;;;;;5078236;28;20032;-72
2022/06/20 15:25:41;;;;;;;5.43;2.20;;;;;;;;;;5075698;28;20032;-72
2022/06/20 15:28:15;;;;;;;5.55;1.80;;;;;;;;;;5082955;28;20017;-75
2022/06/20 15:30:50;;;;;;;4.88;1.98;;;;;;;;;;5084281;28;20107;-72
2022/06/20 15:33:32;;;;;;;6.40;2.03;;;;;;;;;;5082894;28;20123;-72
2022/06/20 15:36:16;;;;;;;5.20;1.83;;;;;;;;;;5068242;28;20037;-73
2022/06/20 15:39:21;;;;;;;4.90;1.90;;;;;;;;;;5079505;28;20109;-72
2022/06/20 15:42:28;;;;;;;4.05;1.90;;;;;;;;;;5066511;28;20098;-72
2022/06/20 15:44:54;;;;;;;7.15;2.20;;;;;;;;;;5060189;28;20585;-73
2022/06/20 15:47:40;;;;;;;6.38;2.00;;;;;;;;;;5078359;28;20036;-72
2022/06/20 15:50:11;;;;;;;4.85;1.98;;;;;;;;;;5078211;28;20032;-73
2022/06/20 15:53:20;;;;;;;6.40;2.42;;;;;;;;;;5083249;28;20459;-74
2022/06/20 15:56:16;;;;;;;5.18;2.25;;;;;;;;;;5043005;28;20043;-75
2022/06/20 15:59:04;;;;;;;6.03;2.28;;;;;;;;;;5082780;28;20093;-75
2022/06/20 16:01:51;;;;;;;6.05;2.20;;;;;;;;;;5077991;28;20036;-73